Albion, Iowa
Current Conditions -  °F | °C
As of 12:43 PM on Sunday 23 Nov 2014 (Local Time) from KMIW Reporting Station
Light Rain Light Rain  
Wind Chill: 50°   Ceiling: 300
Heat Index: 50°   Visibility: 1.5mi
Dew Point: 50°   Wind: 3mph
Humidity: 100%   Direction: 130°SE
Pressure: 29.4"   Gusts: NA
Location:  42.11°N, 92.99°W
Report Text: KMIW 231843Z AUTO 13003KT 1 1/2SM -RA BR BKN003 BKN011 OVC020 10/10 A2940 RMK AO2 P0003 T01000100
Loading
Personal Weather Stations






























Interactive Weather Map New forecast layout! Learn more

10-Day Weather Forecast

Advertisements
Track Severe Weather on mobile